sensor_id;sensor_type;location;lat;lon;timestamp;P1;durP1;ratioP1;P2;durP2;ratioP2
55212;SDS011;41083;52.932;6.674;2022-09-09T00:01:36;4.28;;;1.40;;
55212;SDS011;41083;52.932;6.674;2022-09-09T00:04:17;3.20;;;1.90;;
55212;SDS011;41083;52.932;6.674;2022-09-09T00:09:47;3.08;;;1.60;;
55212;SDS011;41083;52.932;6.674;2022-09-09T00:14:55;5.28;;;1.77;;
55212;SDS011;41083;52.932;6.674;2022-09-09T00:20:32;2.60;;;1.42;;
55212;SDS011;41083;52.932;6.674;2022-09-09T00:23:28;2.47;;;1.27;;
55212;SDS011;41083;52.932;6.674;2022-09-09T00:26:10;4.07;;;2.15;;
55212;SDS011;41083;52.932;6.674;2022-09-09T00:29:12;3.33;;;1.50;;
55212;SDS011;41083;52.932;6.674;2022-09-09T00:31:48;4.38;;;1.88;;
55212;SDS011;41083;52.932;6.674;2022-09-09T00:34:22;2.75;;;1.30;;
55212;SDS011;41083;52.932;6.674;2022-09-09T00:36:50;3.97;;;2.05;;
55212;SDS011;41083;52.932;6.674;2022-09-09T00:42:02;4.63;;;2.15;;
55212;SDS011;41083;52.932;6.674;2022-09-09T00:44:39;3.20;;;1.80;;
55212;SDS011;41083;52.932;6.674;2022-09-09T00:52:44;4.80;;;1.98;;
55212;SDS011;41083;52.932;6.674;2022-09-09T00:58:18;3.67;;;1.73;;
55212;SDS011;41083;52.932;6.674;2022-09-09T01:00:49;3.95;;;1.92;;
55212;SDS011;41083;52.932;6.674;2022-09-09T01:14:51;3.72;;;2.15;;
55212;SDS011;41083;52.932;6.674;2022-09-09T01:17:24;4.07;;;2.00;;
55212;SDS011;41083;52.932;6.674;2022-09-09T01:28:00;4.18;;;2.00;;
55212;SDS011;41083;52.932;6.674;2022-09-09T01:30:31;4.13;;;1.67;;
55212;SDS011;41083;52.932;6.674;2022-09-09T01:32:58;3.95;;;2.03;;
55212;SDS011;41083;52.932;6.674;2022-09-09T01:35:34;5.25;;;1.98;;
55212;SDS011;41083;52.932;6.674;2022-09-09T01:38:05;3.25;;;1.60;;
55212;SDS011;41083;52.932;6.674;2022-09-09T01:40:31;3.35;;;1.50;;
55212;SDS011;41083;52.932;6.674;2022-09-09T01:42:57;2.85;;;1.52;;
55212;SDS011;41083;52.932;6.674;2022-09-09T01:45:23;3.10;;;1.63;;
55212;SDS011;41083;52.932;6.674;2022-09-09T01:47:50;3.67;;;1.85;;
55212;SDS011;41083;52.932;6.674;2022-09-09T01:50:17;5.53;;;1.83;;
55212;SDS011;41083;52.932;6.674;2022-09-09T01:52:46;4.50;;;1.40;;
55212;SDS011;41083;52.932;6.674;2022-09-09T01:55:16;3.25;;;1.45;;
55212;SDS011;41083;52.932;6.674;2022-09-09T02:00:18;3.83;;;1.63;;
55212;SDS011;41083;52.932;6.674;2022-09-09T02:05:38;3.17;;;1.45;;
55212;SDS011;41083;52.932;6.674;2022-09-09T02:10:36;4.72;;;1.70;;
55212;SDS011;41083;52.932;6.674;2022-09-09T02:13:21;2.35;;;1.52;;
55212;SDS011;41083;52.932;6.674;2022-09-09T02:18:38;3.05;;;1.52;;
55212;SDS011;41083;52.932;6.674;2022-09-09T02:21:20;3.05;;;1.50;;
55212;SDS011;41083;52.932;6.674;2022-09-09T02:23:47;3.22;;;1.30;;
55212;SDS011;41083;52.932;6.674;2022-09-09T02:26:17;2.83;;;1.42;;
55212;SDS011;41083;52.932;6.674;2022-09-09T02:28:47;5.68;;;1.50;;
55212;SDS011;41083;52.932;6.674;2022-09-09T02:31:15;3.65;;;1.50;;
55212;SDS011;41083;52.932;6.674;2022-09-09T02:33:45;4.22;;;1.27;;
55212;SDS011;41083;52.932;6.674;2022-09-09T02:36:16;3.65;;;1.38;;
55212;SDS011;41083;52.932;6.674;2022-09-09T02:38:44;1.60;;;0.90;;
55212;SDS011;41083;52.932;6.674;2022-09-09T02:41:15;2.35;;;1.05;;
55212;SDS011;41083;52.932;6.674;2022-09-09T02:43:46;2.28;;;1.10;;
55212;SDS011;41083;52.932;6.674;2022-09-09T02:51:40;2.30;;;1.20;;
55212;SDS011;41083;52.932;6.674;2022-09-09T02:56:52;1.23;;;0.82;;
55212;SDS011;41083;52.932;6.674;2022-09-09T02:59:19;2.60;;;1.20;;
55212;SDS011;41083;52.932;6.674;2022-09-09T03:01:46;2.72;;;1.23;;
55212;SDS011;41083;52.932;6.674;2022-09-09T03:04:12;2.40;;;1.13;;
55212;SDS011;41083;52.932;6.674;2022-09-09T03:06:38;3.03;;;1.50;;
55212;SDS011;41083;52.932;6.674;2022-09-09T03:09:04;2.33;;;1.38;;
55212;SDS011;41083;52.932;6.674;2022-09-09T03:11:30;3.55;;;1.30;;
55212;SDS011;41083;52.932;6.674;2022-09-09T03:13:55;2.67;;;1.27;;
55212;SDS011;41083;52.932;6.674;2022-09-09T03:16:24;2.33;;;1.40;;
55212;SDS011;41083;52.932;6.674;2022-09-09T03:18:50;4.22;;;1.45;;
55212;SDS011;41083;52.932;6.674;2022-09-09T03:21:15;2.30;;;1.05;;
55212;SDS011;41083;52.932;6.674;2022-09-09T03:23:41;3.25;;;1.52;;
55212;SDS011;41083;52.932;6.674;2022-09-09T03:26:07;3.40;;;1.58;;
55212;SDS011;41083;52.932;6.674;2022-09-09T03:28:33;3.13;;;1.15;;
55212;SDS011;41083;52.932;6.674;2022-09-09T03:31:05;2.03;;;1.00;;
55212;SDS011;41083;52.932;6.674;2022-09-09T03:33:31;2.95;;;1.13;;
55212;SDS011;41083;52.932;6.674;2022-09-09T03:35:56;1.73;;;0.80;;
55212;SDS011;41083;52.932;6.674;2022-09-09T03:38:25;2.17;;;1.05;;
55212;SDS011;41083;52.932;6.674;2022-09-09T03:40:55;1.85;;;1.00;;
55212;SDS011;41083;52.932;6.674;2022-09-09T03:43:25;1.65;;;0.80;;
55212;SDS011;41083;52.932;6.674;2022-09-09T03:45:52;2.38;;;1.05;;
55212;SDS011;41083;52.932;6.674;2022-09-09T03:48:18;1.70;;;0.75;;
55212;SDS011;41083;52.932;6.674;2022-09-09T03:50:48;3.83;;;0.70;;
55212;SDS011;41083;52.932;6.674;2022-09-09T03:53:16;3.42;;;1.02;;
55212;SDS011;41083;52.932;6.674;2022-09-09T03:55:48;1.55;;;1.10;;
55212;SDS011;41083;52.932;6.674;2022-09-09T03:58:17;2.10;;;1.23;;
55212;SDS011;41083;52.932;6.674;2022-09-09T04:00:44;3.60;;;1.30;;
55212;SDS011;41083;52.932;6.674;2022-09-09T04:03:42;3.10;;;1.45;;
55212;SDS011;41083;52.932;6.674;2022-09-09T04:06:10;2.55;;;1.35;;
55212;SDS011;41083;52.932;6.674;2022-09-09T04:08:38;3.67;;;1.30;;
55212;SDS011;41083;52.932;6.674;2022-09-09T04:11:05;3.33;;;1.45;;
55212;SDS011;41083;52.932;6.674;2022-09-09T04:13:35;4.97;;;1.70;;
55212;SDS011;41083;52.932;6.674;2022-09-09T04:16:04;4.70;;;1.85;;
55212;SDS011;41083;52.932;6.674;2022-09-09T04:18:30;3.60;;;1.70;;
55212;SDS011;41083;52.932;6.674;2022-09-09T04:20:57;3.13;;;1.48;;
55212;SDS011;41083;52.932;6.674;2022-09-09T04:23:23;3.08;;;1.50;;
55212;SDS011;41083;52.932;6.674;2022-09-09T04:25:51;3.65;;;1.75;;
55212;SDS011;41083;52.932;6.674;2022-09-09T04:28:18;3.25;;;1.60;;
55212;SDS011;41083;52.932;6.674;2022-09-09T04:30:45;3.33;;;1.70;;
55212;SDS011;41083;52.932;6.674;2022-09-09T04:33:12;2.25;;;1.15;;
55212;SDS011;41083;52.932;6.674;2022-09-09T04:35:38;2.08;;;1.08;;
55212;SDS011;41083;52.932;6.674;2022-09-09T04:38:05;2.67;;;1.30;;
55212;SDS011;41083;52.932;6.674;2022-09-09T04:40:34;2.78;;;1.48;;
55212;SDS011;41083;52.932;6.674;2022-09-09T04:43:01;3.53;;;1.48;;
55212;SDS011;41083;52.932;6.674;2022-09-09T04:45:31;3.63;;;2.05;;
55212;SDS011;41083;52.932;6.674;2022-09-09T04:47:57;3.83;;;1.60;;
55212;SDS011;41083;52.932;6.674;2022-09-09T04:50:23;6.40;;;2.05;;
55212;SDS011;41083;52.932;6.674;2022-09-09T04:52:48;4.88;;;2.00;;
55212;SDS011;41083;52.932;6.674;2022-09-09T04:55:14;3.78;;;2.20;;
55212;SDS011;41083;52.932;6.674;2022-09-09T04:57:40;3.70;;;1.95;;
55212;SDS011;41083;52.932;6.674;2022-09-09T05:00:05;2.70;;;1.60;;
55212;SDS011;41083;52.932;6.674;2022-09-09T05:02:32;3.88;;;1.80;;
55212;SDS011;41083;52.932;6.674;2022-09-09T05:05:01;5.82;;;1.63;;
55212;SDS011;41083;52.932;6.674;2022-09-09T05:07:27;4.43;;;1.92;;
55212;SDS011;41083;52.932;6.674;2022-09-09T05:09:54;2.83;;;1.52;;
55212;SDS011;41083;52.932;6.674;2022-09-09T05:12:19;3.25;;;1.65;;
55212;SDS011;41083;52.932;6.674;2022-09-09T05:14:45;2.90;;;1.65;;
55212;SDS011;41083;52.932;6.674;2022-09-09T05:17:10;4.88;;;1.90;;
55212;SDS011;41083;52.932;6.674;2022-09-09T05:19:36;3.85;;;1.63;;
55212;SDS011;41083;52.932;6.674;2022-09-09T05:22:02;4.53;;;2.15;;
55212;SDS011;41083;52.932;6.674;2022-09-09T05:24:28;3.95;;;1.77;;
55212;SDS011;41083;52.932;6.674;2022-09-09T05:26:54;4.00;;;1.70;;
55212;SDS011;41083;52.932;6.674;2022-09-09T05:29:23;2.67;;;1.25;;
55212;SDS011;41083;52.932;6.674;2022-09-09T05:31:49;3.00;;;1.48;;
55212;SDS011;41083;52.932;6.674;2022-09-09T05:34:15;2.70;;;1.55;;
55212;SDS011;41083;52.932;6.674;2022-09-09T05:36:40;4.38;;;1.35;;
55212;SDS011;41083;52.932;6.674;2022-09-09T05:39:06;3.08;;;1.45;;
55212;SDS011;41083;52.932;6.674;2022-09-09T05:41:31;3.45;;;1.58;;
55212;SDS011;41083;52.932;6.674;2022-09-09T05:43:57;3.35;;;1.77;;
55212;SDS011;41083;52.932;6.674;2022-09-09T05:46:26;2.83;;;1.38;;
55212;SDS011;41083;52.932;6.674;2022-09-09T05:48:52;4.13;;;1.35;;
55212;SDS011;41083;52.932;6.674;2022-09-09T05:51:20;2.65;;;1.38;;
55212;SDS011;41083;52.932;6.674;2022-09-09T05:53:47;4.18;;;1.40;;
55212;SDS011;41083;52.932;6.674;2022-09-09T05:56:17;3.33;;;1.45;;
55212;SDS011;41083;52.932;6.674;2022-09-09T05:58:44;3.60;;;1.73;;
55212;SDS011;41083;52.932;6.674;2022-09-09T06:01:18;3.03;;;1.67;;
55212;SDS011;41083;52.932;6.674;2022-09-09T06:03:46;2.80;;;1.63;;
55212;SDS011;41083;52.932;6.674;2022-09-09T06:06:17;2.75;;;1.38;;
55212;SDS011;41083;52.932;6.674;2022-09-09T06:08:46;3.05;;;1.70;;
55212;SDS011;41083;52.932;6.674;2022-09-09T06:11:13;3.08;;;1.52;;
55212;SDS011;41083;52.932;6.674;2022-09-09T06:13:41;3.28;;;1.60;;
55212;SDS011;41083;52.932;6.674;2022-09-09T06:16:10;3.17;;;1.48;;
55212;SDS011;41083;52.932;6.674;2022-09-09T06:18:37;3.85;;;1.70;;
55212;SDS011;41083;52.932;6.674;2022-09-09T06:21:05;3.72;;;1.70;;
55212;SDS011;41083;52.932;6.674;2022-09-09T06:23:32;5.05;;;1.90;;
55212;SDS011;41083;52.932;6.674;2022-09-09T06:26:00;2.28;;;1.20;;
55212;SDS011;41083;52.932;6.674;2022-09-09T06:28:45;3.90;;;1.52;;
55212;SDS011;41083;52.932;6.674;2022-09-09T06:31:13;3.70;;;1.70;;
55212;SDS011;41083;52.932;6.674;2022-09-09T06:33:41;2.90;;;1.38;;
55212;SDS011;41083;52.932;6.674;2022-09-09T06:36:15;3.75;;;1.67;;
55212;SDS011;41083;52.932;6.674;2022-09-09T06:38:43;3.00;;;1.40;;
55212;SDS011;41083;52.932;6.674;2022-09-09T06:41:09;3.60;;;1.63;;
55212;SDS011;41083;52.932;6.674;2022-09-09T06:43:36;3.25;;;1.65;;
55212;SDS011;41083;52.932;6.674;2022-09-09T06:46:03;4.45;;;1.60;;
55212;SDS011;41083;52.932;6.674;2022-09-09T06:48:30;2.58;;;1.27;;
55212;SDS011;41083;52.932;6.674;2022-09-09T06:51:04;3.40;;;1.42;;
55212;SDS011;41083;52.932;6.674;2022-09-09T06:53:44;4.50;;;1.92;;
55212;SDS011;41083;52.932;6.674;2022-09-09T06:58:39;3.42;;;1.52;;
55212;SDS011;41083;52.932;6.674;2022-09-09T07:01:09;5.65;;;1.63;;
55212;SDS011;41083;52.932;6.674;2022-09-09T07:03:40;3.10;;;1.40;;
55212;SDS011;41083;52.932;6.674;2022-09-09T07:06:07;3.63;;;1.60;;
55212;SDS011;41083;52.932;6.674;2022-09-09T07:08:39;3.30;;;1.35;;
55212;SDS011;41083;52.932;6.674;2022-09-09T07:11:05;2.38;;;1.25;;
55212;SDS011;41083;52.932;6.674;2022-09-09T07:13:32;3.20;;;1.08;;
55212;SDS011;41083;52.932;6.674;2022-09-09T07:16:08;3.45;;;1.80;;
55212;SDS011;41083;52.932;6.674;2022-09-09T07:18:35;2.65;;;1.48;;
55212;SDS011;41083;52.932;6.674;2022-09-09T07:21:01;2.42;;;1.05;;
55212;SDS011;41083;52.932;6.674;2022-09-09T07:23:28;2.47;;;1.48;;
55212;SDS011;41083;52.932;6.674;2022-09-09T07:25:55;2.38;;;1.10;;
55212;SDS011;41083;52.932;6.674;2022-09-09T07:28:23;5.18;;;1.23;;
55212;SDS011;41083;52.932;6.674;2022-09-09T07:30:53;2.00;;;1.33;;
55212;SDS011;41083;52.932;6.674;2022-09-09T07:33:19;3.50;;;1.73;;
55212;SDS011;41083;52.932;6.674;2022-09-09T07:35:45;2.10;;;1.08;;
55212;SDS011;41083;52.932;6.674;2022-09-09T07:38:11;2.80;;;1.02;;
55212;SDS011;41083;52.932;6.674;2022-09-09T07:40:36;2.35;;;1.08;;
55212;SDS011;41083;52.932;6.674;2022-09-09T07:43:02;4.10;;;1.60;;
55212;SDS011;41083;52.932;6.674;2022-09-09T07:45:28;2.05;;;1.08;;
55212;SDS011;41083;52.932;6.674;2022-09-09T07:47:54;1.92;;;1.00;;
55212;SDS011;41083;52.932;6.674;2022-09-09T07:50:21;3.67;;;1.30;;
55212;SDS011;41083;52.932;6.674;2022-09-09T07:52:48;2.20;;;0.98;;
55212;SDS011;41083;52.932;6.674;2022-09-09T07:55:14;3.33;;;0.95;;
55212;SDS011;41083;52.932;6.674;2022-09-09T07:57:40;3.90;;;1.30;;
55212;SDS011;41083;52.932;6.674;2022-09-09T08:00:06;1.83;;;0.95;;
55212;SDS011;41083;52.932;6.674;2022-09-09T08:02:32;2.53;;;1.60;;
55212;SDS011;41083;52.932;6.674;2022-09-09T08:04:57;2.25;;;1.40;;
55212;SDS011;41083;52.932;6.674;2022-09-09T08:07:23;3.38;;;1.67;;
55212;SDS011;41083;52.932;6.674;2022-09-09T08:09:49;3.88;;;1.55;;
55212;SDS011;41083;52.932;6.674;2022-09-09T08:12:15;3.38;;;1.52;;
55212;SDS011;41083;52.932;6.674;2022-09-09T08:14:41;2.67;;;1.25;;
55212;SDS011;41083;52.932;6.674;2022-09-09T08:17:07;2.20;;;1.27;;
55212;SDS011;41083;52.932;6.674;2022-09-09T08:19:33;2.10;;;1.45;;
55212;SDS011;41083;52.932;6.674;2022-09-09T08:22:01;3.75;;;1.52;;
55212;SDS011;41083;52.932;6.674;2022-09-09T08:24:27;3.42;;;1.35;;
55212;SDS011;41083;52.932;6.674;2022-09-09T08:26:53;4.68;;;1.30;;
55212;SDS011;41083;52.932;6.674;2022-09-09T08:29:19;2.50;;;1.73;;
55212;SDS011;41083;52.932;6.674;2022-09-09T08:31:46;4.85;;;1.83;;
55212;SDS011;41083;52.932;6.674;2022-09-09T08:34:13;2.80;;;1.45;;
55212;SDS011;41083;52.932;6.674;2022-09-09T08:36:40;4.85;;;1.65;;
55212;SDS011;41083;52.932;6.674;2022-09-09T08:39:08;2.35;;;1.50;;
55212;SDS011;41083;52.932;6.674;2022-09-09T08:47:02;2.17;;;1.15;;
55212;SDS011;41083;52.932;6.674;2022-09-09T08:52:25;2.38;;;1.65;;
55212;SDS011;41083;52.932;6.674;2022-09-09T08:54:55;4.68;;;1.83;;
55212;SDS011;41083;52.932;6.674;2022-09-09T08:57:26;3.58;;;1.88;;
55212;SDS011;41083;52.932;6.674;2022-09-09T08:59:56;3.03;;;1.48;;
55212;SDS011;41083;52.932;6.674;2022-09-09T09:02:25;2.33;;;1.38;;
55212;SDS011;41083;52.932;6.674;2022-09-09T09:05:07;3.72;;;1.85;;
55212;SDS011;41083;52.932;6.674;2022-09-09T09:10:22;1.98;;;1.10;;
55212;SDS011;41083;52.932;6.674;2022-09-09T09:13:04;3.47;;;1.48;;
55212;SDS011;41083;52.932;6.674;2022-09-09T09:15:58;3.50;;;1.23;;
55212;SDS011;41083;52.932;6.674;2022-09-09T09:18:29;3.45;;;1.60;;
55212;SDS011;41083;52.932;6.674;2022-09-09T09:21:07;1.80;;;1.20;;
55212;SDS011;41083;52.932;6.674;2022-09-09T09:23:45;3.47;;;1.25;;
55212;SDS011;41083;52.932;6.674;2022-09-09T09:26:18;2.85;;;1.20;;
55212;SDS011;41083;52.932;6.674;2022-09-09T09:28:47;1.73;;;1.02;;
55212;SDS011;41083;52.932;6.674;2022-09-09T09:31:13;1.95;;;1.00;;
55212;SDS011;41083;52.932;6.674;2022-09-09T09:36:14;3.30;;;1.23;;
55212;SDS011;41083;52.932;6.674;2022-09-09T09:38:51;3.65;;;1.15;;
55212;SDS011;41083;52.932;6.674;2022-09-09T09:41:43;2.45;;;0.95;;
55212;SDS011;41083;52.932;6.674;2022-09-09T09:44:22;6.55;;;1.20;;
55212;SDS011;41083;52.932;6.674;2022-09-09T09:46:48;2.15;;;1.00;;
55212;SDS011;41083;52.932;6.674;2022-09-09T09:49:13;3.25;;;0.80;;
55212;SDS011;41083;52.932;6.674;2022-09-09T09:51:39;2.63;;;1.13;;
55212;SDS011;41083;52.932;6.674;2022-09-09T09:56:41;6.43;;;1.17;;
55212;SDS011;41083;52.932;6.674;2022-09-09T09:59:21;2.90;;;0.82;;
55212;SDS011;41083;52.932;6.674;2022-09-09T10:01:53;2.22;;;1.02;;
55212;SDS011;41083;52.932;6.674;2022-09-09T10:04:19;3.28;;;0.80;;
55212;SDS011;41083;52.932;6.674;2022-09-09T10:06:48;1.38;;;0.70;;
55212;SDS011;41083;52.932;6.674;2022-09-09T10:09:20;2.05;;;0.82;;
55212;SDS011;41083;52.932;6.674;2022-09-09T10:11:53;1.20;;;0.60;;
55212;SDS011;41083;52.932;6.674;2022-09-09T10:14:41;1.48;;;0.70;;
55212;SDS011;41083;52.932;6.674;2022-09-09T10:22:55;3.83;;;0.60;;
55212;SDS011;41083;52.932;6.674;2022-09-09T10:28:49;1.70;;;0.68;;
55212;SDS011;41083;52.932;6.674;2022-09-09T10:37:25;1.13;;;0.60;;
55212;SDS011;41083;52.932;6.674;2022-09-09T10:40:43;2.60;;;0.70;;
55212;SDS011;41083;52.932;6.674;2022-09-09T10:43:09;3.03;;;0.70;;
55212;SDS011;41083;52.932;6.674;2022-09-09T10:45:57;1.30;;;0.80;;
55212;SDS011;41083;52.932;6.674;2022-09-09T10:48:49;4.97;;;0.80;;
55212;SDS011;41083;52.932;6.674;2022-09-09T10:51:22;1.42;;;0.68;;
55212;SDS011;41083;52.932;6.674;2022-09-09T10:57:13;2.55;;;0.85;;
55212;SDS011;41083;52.932;6.674;2022-09-09T10:59:49;2.20;;;0.80;;
55212;SDS011;41083;52.932;6.674;2022-09-09T11:07:28;1.15;;;0.60;;
55212;SDS011;41083;52.932;6.674;2022-09-09T11:09:58;1.23;;;0.40;;
55212;SDS011;41083;52.932;6.674;2022-09-09T11:12:27;1.45;;;0.40;;
55212;SDS011;41083;52.932;6.674;2022-09-09T11:15:05;1.85;;;0.60;;
55212;SDS011;41083;52.932;6.674;2022-09-09T11:17:41;0.82;;;0.50;;
55212;SDS011;41083;52.932;6.674;2022-09-09T11:20:12;1.80;;;0.67;;
55212;SDS011;41083;52.932;6.674;2022-09-09T11:22:44;3.50;;;0.57;;
55212;SDS011;41083;52.932;6.674;2022-09-09T11:25:42;2.97;;;1.00;;
55212;SDS011;41083;52.932;6.674;2022-09-09T11:37:03;1.58;;;0.60;;
55212;SDS011;41083;52.932;6.674;2022-09-09T11:39:40;0.85;;;0.60;;
55212;SDS011;41083;52.932;6.674;2022-09-09T11:42:25;2.85;;;0.68;;
55212;SDS011;41083;52.932;6.674;2022-09-09T11:44:51;1.05;;;0.60;;
55212;SDS011;41083;52.932;6.674;2022-09-09T11:47:28;2.58;;;0.95;;
55212;SDS011;41083;52.932;6.674;2022-09-09T11:50:06;2.10;;;0.90;;
55212;SDS011;41083;52.932;6.674;2022-09-09T11:53:03;2.25;;;0.70;;
55212;SDS011;41083;52.932;6.674;2022-09-09T11:55:32;0.82;;;0.50;;
55212;SDS011;41083;52.932;6.674;2022-09-09T12:02:58;0.60;;;0.30;;
55212;SDS011;41083;52.932;6.674;2022-09-09T12:05:24;1.35;;;0.47;;
55212;SDS011;41083;52.932;6.674;2022-09-09T12:08:06;6.10;;;0.63;;
55212;SDS011;41083;52.932;6.674;2022-09-09T12:10:38;1.85;;;0.75;;
55212;SDS011;41083;52.932;6.674;2022-09-09T12:13:15;2.33;;;0.52;;
55212;SDS011;41083;52.932;6.674;2022-09-09T12:15:50;4.18;;;0.75;;
55212;SDS011;41083;52.932;6.674;2022-09-09T12:21:04;0.70;;;0.40;;
55212;SDS011;41083;52.932;6.674;2022-09-09T12:23:55;1.42;;;0.70;;
55212;SDS011;41083;52.932;6.674;2022-09-09T12:29:04;1.95;;;0.75;;
55212;SDS011;41083;52.932;6.674;2022-09-09T12:34:09;1.17;;;0.60;;
55212;SDS011;41083;52.932;6.674;2022-09-09T12:36:39;2.65;;;1.08;;
55212;SDS011;41083;52.932;6.674;2022-09-09T12:39:10;1.90;;;0.60;;
55212;SDS011;41083;52.932;6.674;2022-09-09T12:41:51;1.02;;;0.60;;
55212;SDS011;41083;52.932;6.674;2022-09-09T12:44:23;4.10;;;0.53;;
55212;SDS011;41083;52.932;6.674;2022-09-09T12:46:50;0.68;;;0.40;;
55212;SDS011;41083;52.932;6.674;2022-09-09T12:51:51;3.35;;;0.80;;
55212;SDS011;41083;52.932;6.674;2022-09-09T12:54:18;0.98;;;0.47;;
55212;SDS011;41083;52.932;6.674;2022-09-09T12:56:45;0.32;;;0.30;;
55212;SDS011;41083;52.932;6.674;2022-09-09T12:59:23;3.47;;;0.70;;
55212;SDS011;41083;52.932;6.674;2022-09-09T13:01:57;1.27;;;0.35;;
55212;SDS011;41083;52.932;6.674;2022-09-09T13:04:23;0.77;;;0.40;;
55212;SDS011;41083;52.932;6.674;2022-09-09T13:06:49;0.65;;;0.40;;
55212;SDS011;41083;52.932;6.674;2022-09-09T13:09:14;1.23;;;0.60;;
55212;SDS011;41083;52.932;6.674;2022-09-09T13:11:41;2.88;;;0.70;;
55212;SDS011;41083;52.932;6.674;2022-09-09T13:14:12;2.35;;;0.40;;
55212;SDS011;41083;52.932;6.674;2022-09-09T13:16:55;0.63;;;0.30;;
55212;SDS011;41083;52.932;6.674;2022-09-09T13:19:23;1.90;;;0.20;;
55212;SDS011;41083;52.932;6.674;2022-09-09T13:21:53;1.50;;;0.32;;
55212;SDS011;41083;52.932;6.674;2022-09-09T13:24:33;1.13;;;0.38;;
55212;SDS011;41083;52.932;6.674;2022-09-09T13:29:30;1.42;;;0.38;;
55212;SDS011;41083;52.932;6.674;2022-09-09T13:32:03;3.13;;;0.68;;
55212;SDS011;41083;52.932;6.674;2022-09-09T13:34:32;1.95;;;0.85;;
55212;SDS011;41083;52.932;6.674;2022-09-09T13:37:04;0.43;;;0.35;;
55212;SDS011;41083;52.932;6.674;2022-09-09T13:39:32;1.77;;;0.40;;
55212;SDS011;41083;52.932;6.674;2022-09-09T13:42:01;2.10;;;0.70;;
55212;SDS011;41083;52.932;6.674;2022-09-09T13:44:35;0.98;;;0.60;;
55212;SDS011;41083;52.932;6.674;2022-09-09T13:47:19;0.68;;;0.38;;
55212;SDS011;41083;52.932;6.674;2022-09-09T13:49:48;1.67;;;0.60;;
55212;SDS011;41083;52.932;6.674;2022-09-09T13:52:14;1.05;;;0.52;;
55212;SDS011;41083;52.932;6.674;2022-09-09T13:54:47;0.52;;;0.40;;
55212;SDS011;41083;52.932;6.674;2022-09-09T13:57:15;0.70;;;0.50;;
55212;SDS011;41083;52.932;6.674;2022-09-09T13:59:44;1.38;;;0.57;;
55212;SDS011;41083;52.932;6.674;2022-09-09T14:02:10;0.90;;;0.52;;
55212;SDS011;41083;52.932;6.674;2022-09-09T14:04:36;1.33;;;0.80;;
55212;SDS011;41083;52.932;6.674;2022-09-09T14:07:02;1.00;;;0.60;;
55212;SDS011;41083;52.932;6.674;2022-09-09T14:09:28;1.52;;;0.60;;
55212;SDS011;41083;52.932;6.674;2022-09-09T14:11:54;1.00;;;0.50;;
55212;SDS011;41083;52.932;6.674;2022-09-09T14:14:22;1.08;;;0.57;;
55212;SDS011;41083;52.932;6.674;2022-09-09T14:16:48;0.60;;;0.40;;
55212;SDS011;41083;52.932;6.674;2022-09-09T14:19:13;1.42;;;0.38;;
55212;SDS011;41083;52.932;6.674;2022-09-09T14:21:39;2.00;;;0.40;;
55212;SDS011;41083;52.932;6.674;2022-09-09T14:24:05;1.08;;;0.30;;
55212;SDS011;41083;52.932;6.674;2022-09-09T14:26:31;3.05;;;0.40;;
55212;SDS011;41083;52.932;6.674;2022-09-09T14:28:57;0.60;;;0.50;;
55212;SDS011;41083;52.932;6.674;2022-09-09T14:31:23;0.82;;;0.30;;
55212;SDS011;41083;52.932;6.674;2022-09-09T14:33:49;2.13;;;0.57;;
55212;SDS011;41083;52.932;6.674;2022-09-09T14:36:15;2.20;;;0.60;;
55212;SDS011;41083;52.932;6.674;2022-09-09T14:38:41;1.08;;;0.32;;
55212;SDS011;41083;52.932;6.674;2022-09-09T14:41:11;0.85;;;0.30;;
55212;SDS011;41083;52.932;6.674;2022-09-09T14:43:42;0.70;;;0.30;;
55212;SDS011;41083;52.932;6.674;2022-09-09T14:46:08;0.10;;;0.10;;
55212;SDS011;41083;52.932;6.674;2022-09-09T14:48:36;1.13;;;0.20;;
55212;SDS011;41083;52.932;6.674;2022-09-09T14:51:09;1.88;;;0.40;;
55212;SDS011;41083;52.932;6.674;2022-09-09T14:53:37;0.43;;;0.20;;
55212;SDS011;41083;52.932;6.674;2022-09-09T14:56:10;0.82;;;0.22;;
55212;SDS011;41083;52.932;6.674;2022-09-09T14:58:37;0.73;;;0.40;;
55212;SDS011;41083;52.932;6.674;2022-09-09T15:01:07;0.45;;;0.10;;
55212;SDS011;41083;52.932;6.674;2022-09-09T15:03:35;0.32;;;0.30;;
55212;SDS011;41083;52.932;6.674;2022-09-09T15:06:08;1.48;;;0.40;;
55212;SDS011;41083;52.932;6.674;2022-09-09T15:08:39;1.02;;;0.50;;
55212;SDS011;41083;52.932;6.674;2022-09-09T15:11:06;0.30;;;0.30;;
55212;SDS011;41083;52.932;6.674;2022-09-09T15:13:33;0.50;;;0.30;;
55212;SDS011;41083;52.932;6.674;2022-09-09T15:16:06;1.38;;;0.30;;
55212;SDS011;41083;52.932;6.674;2022-09-09T15:18:33;1.42;;;0.50;;
55212;SDS011;41083;52.932;6.674;2022-09-09T15:21:00;0.73;;;0.28;;
55212;SDS011;41083;52.932;6.674;2022-09-09T15:23:28;2.08;;;0.22;;
55212;SDS011;41083;52.932;6.674;2022-09-09T15:25:56;0.65;;;0.40;;
55212;SDS011;41083;52.932;6.674;2022-09-09T15:28:22;1.20;;;0.30;;
55212;SDS011;41083;52.932;6.674;2022-09-09T15:30:51;2.28;;;0.63;;
55212;SDS011;41083;52.932;6.674;2022-09-09T15:33:18;1.30;;;0.55;;
55212;SDS011;41083;52.932;6.674;2022-09-09T15:35:44;0.60;;;0.28;;
55212;SDS011;41083;52.932;6.674;2022-09-09T15:38:10;1.40;;;0.30;;
55212;SDS011;41083;52.932;6.674;2022-09-09T15:40:38;0.60;;;0.40;;
55212;SDS011;41083;52.932;6.674;2022-09-09T15:43:04;1.17;;;0.40;;
55212;SDS011;41083;52.932;6.674;2022-09-09T15:45:31;0.68;;;0.40;;
55212;SDS011;41083;52.932;6.674;2022-09-09T15:47:58;0.32;;;0.20;;
55212;SDS011;41083;52.932;6.674;2022-09-09T15:50:28;1.42;;;0.40;;
55212;SDS011;41083;52.932;6.674;2022-09-09T15:52:56;0.30;;;0.20;;
55212;SDS011;41083;52.932;6.674;2022-09-09T15:55:22;1.73;;;0.35;;
55212;SDS011;41083;52.932;6.674;2022-09-09T15:57:50;1.08;;;0.50;;
55212;SDS011;41083;52.932;6.674;2022-09-09T16:00:17;1.58;;;0.77;;
55212;SDS011;41083;52.932;6.674;2022-09-09T16:02:44;1.52;;;0.65;;
55212;SDS011;41083;52.932;6.674;2022-09-09T16:05:14;0.98;;;0.45;;
55212;SDS011;41083;52.932;6.674;2022-09-09T16:07:40;0.98;;;0.50;;
55212;SDS011;41083;52.932;6.674;2022-09-09T16:10:07;0.70;;;0.40;;
55212;SDS011;41083;52.932;6.674;2022-09-09T16:12:33;2.22;;;0.50;;
55212;SDS011;41083;52.932;6.674;2022-09-09T16:14:59;1.15;;;0.47;;
55212;SDS011;41083;52.932;6.674;2022-09-09T16:17:24;2.65;;;0.40;;
55212;SDS011;41083;52.932;6.674;2022-09-09T16:19:50;0.77;;;0.50;;
55212;SDS011;41083;52.932;6.674;2022-09-09T16:22:16;0.68;;;0.32;;
55212;SDS011;41083;52.932;6.674;2022-09-09T16:24:43;2.28;;;0.50;;
55212;SDS011;41083;52.932;6.674;2022-09-09T16:27:10;1.05;;;0.65;;
55212;SDS011;41083;52.932;6.674;2022-09-09T16:29:36;0.63;;;0.40;;
55212;SDS011;41083;52.932;6.674;2022-09-09T16:32:01;1.30;;;0.47;;
55212;SDS011;41083;52.932;6.674;2022-09-09T16:34:28;1.92;;;0.65;;
55212;SDS011;41083;52.932;6.674;2022-09-09T16:36:54;0.22;;;0.22;;
55212;SDS011;41083;52.932;6.674;2022-09-09T16:39:20;0.50;;;0.30;;
55212;SDS011;41083;52.932;6.674;2022-09-09T16:41:46;1.52;;;0.43;;
55212;SDS011;41083;52.932;6.674;2022-09-09T16:44:13;0.35;;;0.22;;
55212;SDS011;41083;52.932;6.674;2022-09-09T16:46:41;0.85;;;0.47;;
55212;SDS011;41083;52.932;6.674;2022-09-09T16:49:12;1.33;;;0.40;;
55212;SDS011;41083;52.932;6.674;2022-09-09T16:51:49;1.15;;;0.47;;
55212;SDS011;41083;52.932;6.674;2022-09-09T16:54:18;0.68;;;0.47;;
55212;SDS011;41083;52.932;6.674;2022-09-09T16:56:46;1.17;;;0.57;;
55212;SDS011;41083;52.932;6.674;2022-09-09T16:59:13;4.40;;;0.47;;
55212;SDS011;41083;52.932;6.674;2022-09-09T17:01:44;0.82;;;0.43;;
55212;SDS011;41083;52.932;6.674;2022-09-09T17:04:15;1.10;;;0.65;;
55212;SDS011;41083;52.932;6.674;2022-09-09T17:06:45;1.00;;;0.50;;
55212;SDS011;41083;52.932;6.674;2022-09-09T17:09:14;0.90;;;0.50;;
55212;SDS011;41083;52.932;6.674;2022-09-09T17:11:40;1.75;;;0.63;;